sensor_id;sensor_type;location;lat;lon;timestamp;P1;durP1;ratioP1;P2;durP2;ratioP2
65189;SDS011;51777;53.570;9.984;2023-05-10T00:01:05;6.63;;;2.88;;
65189;SDS011;51777;53.570;9.984;2023-05-10T00:03:31;5.55;;;3.05;;
65189;SDS011;51777;53.570;9.984;2023-05-10T00:05:56;6.07;;;3.00;;
65189;SDS011;51777;53.570;9.984;2023-05-10T00:08:22;8.38;;;2.72;;
65189;SDS011;51777;53.570;9.984;2023-05-10T00:10:47;5.18;;;3.05;;
65189;SDS011;51777;53.570;9.984;2023-05-10T00:13:13;6.05;;;3.20;;
65189;SDS011;51777;53.570;9.984;2023-05-10T00:15:38;5.63;;;2.83;;
65189;SDS011;51777;53.570;9.984;2023-05-10T00:18:04;5.43;;;3.10;;
65189;SDS011;51777;53.570;9.984;2023-05-10T00:20:29;4.38;;;3.10;;
65189;SDS011;51777;53.570;9.984;2023-05-10T00:22:54;4.45;;;2.92;;
65189;SDS011;51777;53.570;9.984;2023-05-10T00:25:20;9.00;;;3.25;;
65189;SDS011;51777;53.570;9.984;2023-05-10T00:27:46;6.70;;;3.10;;
65189;SDS011;51777;53.570;9.984;2023-05-10T00:30:12;5.68;;;3.10;;
65189;SDS011;51777;53.570;9.984;2023-05-10T00:32:37;6.88;;;3.10;;
65189;SDS011;51777;53.570;9.984;2023-05-10T00:35:03;5.50;;;3.05;;
65189;SDS011;51777;53.570;9.984;2023-05-10T00:37:29;8.27;;;3.63;;
65189;SDS011;51777;53.570;9.984;2023-05-10T00:39:54;7.25;;;3.15;;
65189;SDS011;51777;53.570;9.984;2023-05-10T00:42:19;6.22;;;3.00;;
65189;SDS011;51777;53.570;9.984;2023-05-10T00:44:45;11.77;;;3.70;;
65189;SDS011;51777;53.570;9.984;2023-05-10T00:47:11;5.05;;;3.10;;
65189;SDS011;51777;53.570;9.984;2023-05-10T00:49:37;4.05;;;3.10;;
65189;SDS011;51777;53.570;9.984;2023-05-10T00:52:02;7.30;;;3.30;;
65189;SDS011;51777;53.570;9.984;2023-05-10T00:54:28;5.65;;;3.15;;
65189;SDS011;51777;53.570;9.984;2023-05-10T00:56:54;5.18;;;2.80;;
65189;SDS011;51777;53.570;9.984;2023-05-10T00:59:21;4.45;;;3.30;;
65189;SDS011;51777;53.570;9.984;2023-05-10T01:01:47;7.97;;;3.38;;
65189;SDS011;51777;53.570;9.984;2023-05-10T01:04:13;6.35;;;3.50;;
65189;SDS011;51777;53.570;9.984;2023-05-10T01:06:50;5.03;;;3.42;;
65189;SDS011;51777;53.570;9.984;2023-05-10T01:09:19;7.13;;;3.40;;
65189;SDS011;51777;53.570;9.984;2023-05-10T01:11:46;7.13;;;3.50;;
65189;SDS011;51777;53.570;9.984;2023-05-10T01:14:12;5.78;;;3.00;;
65189;SDS011;51777;53.570;9.984;2023-05-10T01:16:38;5.50;;;2.70;;
65189;SDS011;51777;53.570;9.984;2023-05-10T01:19:19;8.15;;;3.47;;
65189;SDS011;51777;53.570;9.984;2023-05-10T01:21:55;6.80;;;3.38;;
65189;SDS011;51777;53.570;9.984;2023-05-10T01:33:19;5.13;;;3.35;;
65189;SDS011;51777;53.570;9.984;2023-05-10T01:41:14;8.32;;;3.28;;
65189;SDS011;51777;53.570;9.984;2023-05-10T01:43:48;4.43;;;3.10;;
65189;SDS011;51777;53.570;9.984;2023-05-10T01:46:16;9.52;;;3.50;;
65189;SDS011;51777;53.570;9.984;2023-05-10T01:48:48;12.10;;;3.50;;
65189;SDS011;51777;53.570;9.984;2023-05-10T01:51:24;6.78;;;3.13;;
65189;SDS011;51777;53.570;9.984;2023-05-10T01:53:54;6.82;;;3.28;;
65189;SDS011;51777;53.570;9.984;2023-05-10T01:56:25;8.50;;;3.67;;
65189;SDS011;51777;53.570;9.984;2023-05-10T01:58:53;4.80;;;3.42;;
65189;SDS011;51777;53.570;9.984;2023-05-10T02:01:20;6.15;;;3.40;;
65189;SDS011;51777;53.570;9.984;2023-05-10T02:03:46;5.85;;;3.20;;
65189;SDS011;51777;53.570;9.984;2023-05-10T02:06:14;7.82;;;3.50;;
65189;SDS011;51777;53.570;9.984;2023-05-10T02:08:43;7.35;;;3.30;;
65189;SDS011;51777;53.570;9.984;2023-05-10T02:11:12;6.30;;;3.25;;
65189;SDS011;51777;53.570;9.984;2023-05-10T02:13:38;5.25;;;3.42;;
65189;SDS011;51777;53.570;9.984;2023-05-10T02:16:05;6.57;;;3.70;;
65189;SDS011;51777;53.570;9.984;2023-05-10T02:18:31;7.30;;;2.92;;
65189;SDS011;51777;53.570;9.984;2023-05-10T02:20:59;4.72;;;3.22;;
65189;SDS011;51777;53.570;9.984;2023-05-10T02:23:26;11.52;;;3.58;;
65189;SDS011;51777;53.570;9.984;2023-05-10T02:25:52;6.13;;;3.40;;
65189;SDS011;51777;53.570;9.984;2023-05-10T02:28:20;9.07;;;4.10;;
65189;SDS011;51777;53.570;9.984;2023-05-10T02:30:48;8.00;;;3.53;;
65189;SDS011;51777;53.570;9.984;2023-05-10T02:33:14;9.32;;;3.33;;
65189;SDS011;51777;53.570;9.984;2023-05-10T02:35:39;4.00;;;3.45;;
65189;SDS011;51777;53.570;9.984;2023-05-10T02:38:06;6.15;;;3.38;;
65189;SDS011;51777;53.570;9.984;2023-05-10T02:40:33;6.03;;;3.40;;
65189;SDS011;51777;53.570;9.984;2023-05-10T02:43:01;7.18;;;3.55;;
65189;SDS011;51777;53.570;9.984;2023-05-10T02:45:30;8.18;;;3.58;;
65189;SDS011;51777;53.570;9.984;2023-05-10T02:47:57;14.63;;;4.68;;
65189;SDS011;51777;53.570;9.984;2023-05-10T02:50:25;11.90;;;3.92;;
65189;SDS011;51777;53.570;9.984;2023-05-10T02:52:54;5.10;;;3.10;;
65189;SDS011;51777;53.570;9.984;2023-05-10T02:55:25;5.43;;;3.20;;
65189;SDS011;51777;53.570;9.984;2023-05-10T02:57:58;8.25;;;3.65;;
65189;SDS011;51777;53.570;9.984;2023-05-10T03:00:25;11.60;;;3.60;;
65189;SDS011;51777;53.570;9.984;2023-05-10T03:02:50;4.88;;;3.42;;
65189;SDS011;51777;53.570;9.984;2023-05-10T03:05:16;6.00;;;3.53;;
65189;SDS011;51777;53.570;9.984;2023-05-10T03:07:41;5.22;;;3.65;;
65189;SDS011;51777;53.570;9.984;2023-05-10T03:10:07;7.75;;;3.70;;
65189;SDS011;51777;53.570;9.984;2023-05-10T03:12:50;5.55;;;3.60;;
65189;SDS011;51777;53.570;9.984;2023-05-10T03:15:19;10.18;;;3.90;;
65189;SDS011;51777;53.570;9.984;2023-05-10T03:20:21;9.10;;;3.50;;
65189;SDS011;51777;53.570;9.984;2023-05-10T03:23:02;6.55;;;3.40;;
65189;SDS011;51777;53.570;9.984;2023-05-10T03:25:33;7.25;;;3.90;;
65189;SDS011;51777;53.570;9.984;2023-05-10T03:27:59;5.93;;;3.30;;
65189;SDS011;51777;53.570;9.984;2023-05-10T03:30:26;5.78;;;3.60;;
65189;SDS011;51777;53.570;9.984;2023-05-10T03:32:53;7.88;;;3.10;;
65189;SDS011;51777;53.570;9.984;2023-05-10T03:35:19;5.25;;;3.50;;
65189;SDS011;51777;53.570;9.984;2023-05-10T03:37:44;4.10;;;3.30;;
65189;SDS011;51777;53.570;9.984;2023-05-10T03:40:10;4.82;;;3.67;;
65189;SDS011;51777;53.570;9.984;2023-05-10T03:42:35;5.28;;;3.38;;
65189;SDS011;51777;53.570;9.984;2023-05-10T03:45:01;9.77;;;3.60;;
65189;SDS011;51777;53.570;9.984;2023-05-10T03:47:27;6.35;;;3.83;;
65189;SDS011;51777;53.570;9.984;2023-05-10T03:49:52;7.95;;;3.65;;
65189;SDS011;51777;53.570;9.984;2023-05-10T03:52:17;5.57;;;3.85;;
65189;SDS011;51777;53.570;9.984;2023-05-10T03:54:43;6.18;;;3.40;;
65189;SDS011;51777;53.570;9.984;2023-05-10T03:57:08;11.18;;;3.70;;
65189;SDS011;51777;53.570;9.984;2023-05-10T03:59:34;6.95;;;3.40;;
65189;SDS011;51777;53.570;9.984;2023-05-10T04:02:00;3.67;;;3.38;;
65189;SDS011;51777;53.570;9.984;2023-05-10T04:04:25;7.55;;;3.95;;
65189;SDS011;51777;53.570;9.984;2023-05-10T04:06:50;4.15;;;3.30;;
65189;SDS011;51777;53.570;9.984;2023-05-10T04:09:16;6.55;;;3.17;;
65189;SDS011;51777;53.570;9.984;2023-05-10T04:11:42;12.65;;;3.90;;
65189;SDS011;51777;53.570;9.984;2023-05-10T04:14:08;8.20;;;3.78;;
65189;SDS011;51777;53.570;9.984;2023-05-10T04:16:33;7.35;;;3.72;;
65189;SDS011;51777;53.570;9.984;2023-05-10T04:18:58;8.20;;;3.83;;
65189;SDS011;51777;53.570;9.984;2023-05-10T04:21:24;10.32;;;3.60;;
65189;SDS011;51777;53.570;9.984;2023-05-10T04:23:50;11.43;;;3.58;;
65189;SDS011;51777;53.570;9.984;2023-05-10T04:26:15;9.98;;;3.70;;
65189;SDS011;51777;53.570;9.984;2023-05-10T04:28:41;5.88;;;3.80;;
65189;SDS011;51777;53.570;9.984;2023-05-10T04:31:07;6.53;;;3.60;;
65189;SDS011;51777;53.570;9.984;2023-05-10T04:33:35;8.30;;;3.60;;
65189;SDS011;51777;53.570;9.984;2023-05-10T04:36:01;5.72;;;3.75;;
65189;SDS011;51777;53.570;9.984;2023-05-10T04:38:27;6.95;;;3.20;;
65189;SDS011;51777;53.570;9.984;2023-05-10T04:40:52;9.80;;;3.92;;
65189;SDS011;51777;53.570;9.984;2023-05-10T04:43:18;9.13;;;3.70;;
65189;SDS011;51777;53.570;9.984;2023-05-10T04:45:44;6.07;;;4.05;;
65189;SDS011;51777;53.570;9.984;2023-05-10T04:48:09;6.80;;;3.80;;
65189;SDS011;51777;53.570;9.984;2023-05-10T04:50:34;6.32;;;3.80;;
65189;SDS011;51777;53.570;9.984;2023-05-10T04:53:00;8.65;;;3.90;;
65189;SDS011;51777;53.570;9.984;2023-05-10T04:55:26;6.80;;;3.45;;
65189;SDS011;51777;53.570;9.984;2023-05-10T04:57:52;5.95;;;4.00;;
65189;SDS011;51777;53.570;9.984;2023-05-10T05:00:18;8.82;;;4.32;;
65189;SDS011;51777;53.570;9.984;2023-05-10T05:02:44;12.75;;;4.00;;
65189;SDS011;51777;53.570;9.984;2023-05-10T05:05:11;6.53;;;3.88;;
65189;SDS011;51777;53.570;9.984;2023-05-10T05:07:37;7.15;;;3.05;;
65189;SDS011;51777;53.570;9.984;2023-05-10T05:10:03;11.55;;;3.90;;
65189;SDS011;51777;53.570;9.984;2023-05-10T05:12:30;4.20;;;3.38;;
65189;SDS011;51777;53.570;9.984;2023-05-10T05:14:56;7.40;;;3.38;;
65189;SDS011;51777;53.570;9.984;2023-05-10T05:17:21;5.85;;;3.92;;
65189;SDS011;51777;53.570;9.984;2023-05-10T05:19:47;8.25;;;3.83;;
65189;SDS011;51777;53.570;9.984;2023-05-10T05:22:15;12.70;;;3.58;;
65189;SDS011;51777;53.570;9.984;2023-05-10T05:24:55;13.68;;;3.70;;
65189;SDS011;51777;53.570;9.984;2023-05-10T05:27:21;8.32;;;4.00;;
65189;SDS011;51777;53.570;9.984;2023-05-10T05:29:52;11.32;;;3.72;;
65189;SDS011;51777;53.570;9.984;2023-05-10T05:32:21;10.45;;;4.05;;
65189;SDS011;51777;53.570;9.984;2023-05-10T05:34:46;13.80;;;3.78;;
65189;SDS011;51777;53.570;9.984;2023-05-10T05:37:13;6.82;;;3.45;;
65189;SDS011;51777;53.570;9.984;2023-05-10T05:39:42;13.50;;;3.67;;
65189;SDS011;51777;53.570;9.984;2023-05-10T05:42:08;3.30;;;3.00;;
65189;SDS011;51777;53.570;9.984;2023-05-10T05:44:34;13.25;;;3.58;;
65189;SDS011;51777;53.570;9.984;2023-05-10T05:47:00;4.93;;;2.63;;
65189;SDS011;51777;53.570;9.984;2023-05-10T05:49:26;5.45;;;3.80;;
65189;SDS011;51777;53.570;9.984;2023-05-10T05:51:51;6.25;;;3.05;;
65189;SDS011;51777;53.570;9.984;2023-05-10T05:54:17;7.70;;;3.53;;
65189;SDS011;51777;53.570;9.984;2023-05-10T05:56:42;5.93;;;3.50;;
65189;SDS011;51777;53.570;9.984;2023-05-10T05:59:09;8.52;;;3.70;;
65189;SDS011;51777;53.570;9.984;2023-05-10T06:01:34;5.45;;;3.50;;
65189;SDS011;51777;53.570;9.984;2023-05-10T06:04:00;7.75;;;3.63;;
65189;SDS011;51777;53.570;9.984;2023-05-10T06:06:26;8.88;;;3.50;;
65189;SDS011;51777;53.570;9.984;2023-05-10T06:08:52;13.93;;;3.80;;
65189;SDS011;51777;53.570;9.984;2023-05-10T06:11:17;16.48;;;3.50;;
65189;SDS011;51777;53.570;9.984;2023-05-10T06:13:43;5.72;;;3.30;;
65189;SDS011;51777;53.570;9.984;2023-05-10T06:16:08;7.07;;;3.75;;
65189;SDS011;51777;53.570;9.984;2023-05-10T06:18:34;9.55;;;3.90;;
65189;SDS011;51777;53.570;9.984;2023-05-10T06:20:59;8.63;;;3.30;;
65189;SDS011;51777;53.570;9.984;2023-05-10T06:23:25;5.30;;;3.63;;
65189;SDS011;51777;53.570;9.984;2023-05-10T06:25:51;10.77;;;3.53;;
65189;SDS011;51777;53.570;9.984;2023-05-10T06:28:17;14.00;;;4.43;;
65189;SDS011;51777;53.570;9.984;2023-05-10T06:30:42;10.80;;;3.45;;
65189;SDS011;51777;53.570;9.984;2023-05-10T06:33:08;8.68;;;3.70;;
65189;SDS011;51777;53.570;9.984;2023-05-10T06:35:33;8.48;;;3.90;;
65189;SDS011;51777;53.570;9.984;2023-05-10T06:37:59;14.05;;;3.35;;
65189;SDS011;51777;53.570;9.984;2023-05-10T06:40:25;12.48;;;3.78;;
65189;SDS011;51777;53.570;9.984;2023-05-10T06:42:50;9.65;;;3.70;;
65189;SDS011;51777;53.570;9.984;2023-05-10T06:45:16;8.68;;;3.60;;
65189;SDS011;51777;53.570;9.984;2023-05-10T06:47:42;15.23;;;3.90;;
65189;SDS011;51777;53.570;9.984;2023-05-10T06:50:08;8.73;;;3.90;;
65189;SDS011;51777;53.570;9.984;2023-05-10T06:52:34;8.35;;;3.80;;
65189;SDS011;51777;53.570;9.984;2023-05-10T06:55:00;8.70;;;4.10;;
65189;SDS011;51777;53.570;9.984;2023-05-10T06:57:26;11.32;;;3.85;;
65189;SDS011;51777;53.570;9.984;2023-05-10T06:59:52;7.95;;;3.60;;
65189;SDS011;51777;53.570;9.984;2023-05-10T07:02:17;11.43;;;3.70;;
65189;SDS011;51777;53.570;9.984;2023-05-10T07:04:42;14.93;;;4.00;;
65189;SDS011;51777;53.570;9.984;2023-05-10T07:07:08;14.38;;;4.00;;
65189;SDS011;51777;53.570;9.984;2023-05-10T07:09:33;10.75;;;3.75;;
65189;SDS011;51777;53.570;9.984;2023-05-10T07:11:59;18.13;;;4.00;;
65189;SDS011;51777;53.570;9.984;2023-05-10T07:14:25;11.15;;;3.70;;
65189;SDS011;51777;53.570;9.984;2023-05-10T07:16:50;18.42;;;4.28;;
65189;SDS011;51777;53.570;9.984;2023-05-10T07:19:15;32.60;;;4.55;;
65189;SDS011;51777;53.570;9.984;2023-05-10T07:21:41;11.75;;;4.40;;
65189;SDS011;51777;53.570;9.984;2023-05-10T07:24:08;30.35;;;4.20;;
65189;SDS011;51777;53.570;9.984;2023-05-10T07:26:33;19.80;;;4.00;;
65189;SDS011;51777;53.570;9.984;2023-05-10T07:28:59;16.45;;;3.72;;
65189;SDS011;51777;53.570;9.984;2023-05-10T07:31:24;21.17;;;3.88;;
65189;SDS011;51777;53.570;9.984;2023-05-10T07:33:50;17.33;;;4.10;;
65189;SDS011;51777;53.570;9.984;2023-05-10T07:36:15;12.68;;;4.00;;
65189;SDS011;51777;53.570;9.984;2023-05-10T07:38:40;31.10;;;4.18;;
65189;SDS011;51777;53.570;9.984;2023-05-10T07:41:06;12.15;;;3.65;;
65189;SDS011;51777;53.570;9.984;2023-05-10T07:43:31;24.45;;;4.05;;
65189;SDS011;51777;53.570;9.984;2023-05-10T07:45:57;23.17;;;3.80;;
65189;SDS011;51777;53.570;9.984;2023-05-10T07:48:24;14.15;;;3.63;;
65189;SDS011;51777;53.570;9.984;2023-05-10T07:50:50;27.65;;;4.15;;
65189;SDS011;51777;53.570;9.984;2023-05-10T07:53:16;11.07;;;3.53;;
65189;SDS011;51777;53.570;9.984;2023-05-10T07:55:41;13.00;;;3.50;;
65189;SDS011;51777;53.570;9.984;2023-05-10T07:58:07;12.75;;;4.10;;
65189;SDS011;51777;53.570;9.984;2023-05-10T08:00:32;13.50;;;3.40;;
65189;SDS011;51777;53.570;9.984;2023-05-10T08:02:57;11.13;;;2.65;;
65189;SDS011;51777;53.570;9.984;2023-05-10T08:05:23;20.67;;;3.75;;
65189;SDS011;51777;53.570;9.984;2023-05-10T08:07:48;13.00;;;3.63;;
65189;SDS011;51777;53.570;9.984;2023-05-10T08:10:15;9.07;;;3.40;;
65189;SDS011;51777;53.570;9.984;2023-05-10T08:12:40;9.02;;;3.50;;
65189;SDS011;51777;53.570;9.984;2023-05-10T08:15:06;11.27;;;3.63;;
65189;SDS011;51777;53.570;9.984;2023-05-10T08:17:32;13.32;;;3.78;;
65189;SDS011;51777;53.570;9.984;2023-05-10T08:19:57;11.73;;;3.58;;
65189;SDS011;51777;53.570;9.984;2023-05-10T08:22:23;13.45;;;3.97;;
65189;SDS011;51777;53.570;9.984;2023-05-10T08:24:48;32.22;;;4.95;;
65189;SDS011;51777;53.570;9.984;2023-05-10T08:27:13;25.63;;;3.42;;
65189;SDS011;51777;53.570;9.984;2023-05-10T08:29:39;16.27;;;3.70;;
65189;SDS011;51777;53.570;9.984;2023-05-10T08:32:04;30.25;;;4.00;;
65189;SDS011;51777;53.570;9.984;2023-05-10T08:34:30;7.95;;;3.58;;
65189;SDS011;51777;53.570;9.984;2023-05-10T08:36:56;8.13;;;3.25;;
65189;SDS011;51777;53.570;9.984;2023-05-10T08:39:21;27.05;;;4.15;;
65189;SDS011;51777;53.570;9.984;2023-05-10T08:41:48;35.80;;;4.45;;
65189;SDS011;51777;53.570;9.984;2023-05-10T08:44:16;19.42;;;3.50;;
65189;SDS011;51777;53.570;9.984;2023-05-10T08:46:45;11.85;;;3.40;;
65189;SDS011;51777;53.570;9.984;2023-05-10T08:49:16;28.67;;;4.03;;
65189;SDS011;51777;53.570;9.984;2023-05-10T08:51:44;22.27;;;3.72;;
65189;SDS011;51777;53.570;9.984;2023-05-10T08:54:16;9.75;;;3.47;;
65189;SDS011;51777;53.570;9.984;2023-05-10T08:56:41;17.52;;;3.78;;
65189;SDS011;51777;53.570;9.984;2023-05-10T08:59:07;12.43;;;3.50;;
65189;SDS011;51777;53.570;9.984;2023-05-10T09:01:35;6.13;;;3.58;;
65189;SDS011;51777;53.570;9.984;2023-05-10T09:04:02;8.18;;;3.78;;
65189;SDS011;51777;53.570;9.984;2023-05-10T09:06:29;8.02;;;3.50;;
65189;SDS011;51777;53.570;9.984;2023-05-10T09:08:54;30.02;;;4.18;;
65189;SDS011;51777;53.570;9.984;2023-05-10T09:11:20;17.88;;;3.63;;
65189;SDS011;51777;53.570;9.984;2023-05-10T09:13:47;11.23;;;3.65;;
65189;SDS011;51777;53.570;9.984;2023-05-10T09:16:15;9.98;;;3.40;;
65189;SDS011;51777;53.570;9.984;2023-05-10T09:18:41;13.40;;;4.53;;
65189;SDS011;51777;53.570;9.984;2023-05-10T09:21:06;8.70;;;3.60;;
65189;SDS011;51777;53.570;9.984;2023-05-10T09:23:32;19.15;;;3.95;;
65189;SDS011;51777;53.570;9.984;2023-05-10T09:26:04;11.73;;;3.83;;
65189;SDS011;51777;53.570;9.984;2023-05-10T09:28:34;12.90;;;3.50;;
65189;SDS011;51777;53.570;9.984;2023-05-10T09:31:14;8.73;;;3.67;;
65189;SDS011;51777;53.570;9.984;2023-05-10T09:33:45;7.85;;;3.65;;
65189;SDS011;51777;53.570;9.984;2023-05-10T09:36:13;6.30;;;3.67;;
65189;SDS011;51777;53.570;9.984;2023-05-10T09:38:46;9.20;;;4.10;;
65189;SDS011;51777;53.570;9.984;2023-05-10T09:41:19;12.23;;;3.85;;
65189;SDS011;51777;53.570;9.984;2023-05-10T09:43:46;10.82;;;4.13;;
65189;SDS011;51777;53.570;9.984;2023-05-10T09:46:13;12.63;;;3.95;;
65189;SDS011;51777;53.570;9.984;2023-05-10T09:48:42;12.70;;;4.25;;
65189;SDS011;51777;53.570;9.984;2023-05-10T09:54:32;12.23;;;4.93;;
65189;SDS011;51777;53.570;9.984;2023-05-10T09:56:59;13.77;;;4.65;;
65189;SDS011;51777;53.570;9.984;2023-05-10T09:59:26;10.70;;;4.47;;
65189;SDS011;51777;53.570;9.984;2023-05-10T10:01:53;9.77;;;4.20;;
65189;SDS011;51777;53.570;9.984;2023-05-10T10:04:21;13.20;;;4.57;;
65189;SDS011;51777;53.570;9.984;2023-05-10T10:06:57;10.02;;;4.90;;
65189;SDS011;51777;53.570;9.984;2023-05-10T10:09:33;16.00;;;4.78;;
65189;SDS011;51777;53.570;9.984;2023-05-10T10:12:02;14.60;;;4.97;;
65189;SDS011;51777;53.570;9.984;2023-05-10T10:16:57;12.50;;;5.13;;
65189;SDS011;51777;53.570;9.984;2023-05-10T10:19:25;25.23;;;5.30;;
65189;SDS011;51777;53.570;9.984;2023-05-10T10:21:51;13.75;;;5.32;;
65189;SDS011;51777;53.570;9.984;2023-05-10T10:24:17;15.38;;;5.60;;
65189;SDS011;51777;53.570;9.984;2023-05-10T10:26:42;8.52;;;5.50;;
65189;SDS011;51777;53.570;9.984;2023-05-10T10:31:48;12.75;;;5.63;;
65189;SDS011;51777;53.570;9.984;2023-05-10T10:34:28;13.70;;;5.80;;
65189;SDS011;51777;53.570;9.984;2023-05-10T10:36:55;11.75;;;5.72;;
65189;SDS011;51777;53.570;9.984;2023-05-10T10:39:22;9.05;;;5.65;;
65189;SDS011;51777;53.570;9.984;2023-05-10T10:44:22;14.30;;;6.10;;
65189;SDS011;51777;53.570;9.984;2023-05-10T10:47:02;11.90;;;6.03;;
65189;SDS011;51777;53.570;9.984;2023-05-10T10:54:56;10.65;;;5.55;;
65189;SDS011;51777;53.570;9.984;2023-05-10T10:57:35;8.48;;;6.22;;
65189;SDS011;51777;53.570;9.984;2023-05-10T11:00:23;8.73;;;4.13;;
65189;SDS011;51777;53.570;9.984;2023-05-10T11:02:52;7.53;;;5.22;;
65189;SDS011;51777;53.570;9.984;2023-05-10T11:13:31;13.07;;;6.65;;
65189;SDS011;51777;53.570;9.984;2023-05-10T11:19:29;11.85;;;5.93;;
65189;SDS011;51777;53.570;9.984;2023-05-10T11:21:33;7.35;;;5.68;;
65189;SDS011;51777;53.570;9.984;2023-05-10T11:24:12;16.90;;;5.88;;
65189;SDS011;51777;53.570;9.984;2023-05-10T11:26:42;11.48;;;5.60;;
65189;SDS011;51777;53.570;9.984;2023-05-10T11:29:07;17.25;;;5.97;;
65189;SDS011;51777;53.570;9.984;2023-05-10T11:31:33;10.00;;;5.80;;
65189;SDS011;51777;53.570;9.984;2023-05-10T11:34:00;12.52;;;5.93;;
65189;SDS011;51777;53.570;9.984;2023-05-10T11:36:27;11.63;;;6.13;;
65189;SDS011;51777;53.570;9.984;2023-05-10T11:38:55;7.68;;;5.93;;
65189;SDS011;51777;53.570;9.984;2023-05-10T11:41:23;8.25;;;6.20;;
65189;SDS011;51777;53.570;9.984;2023-05-10T11:43:50;7.80;;;5.65;;
65189;SDS011;51777;53.570;9.984;2023-05-10T11:46:18;28.77;;;7.50;;
65189;SDS011;51777;53.570;9.984;2023-05-10T11:48:49;39.88;;;8.02;;
65189;SDS011;51777;53.570;9.984;2023-05-10T11:51:19;44.63;;;8.05;;
65189;SDS011;51777;53.570;9.984;2023-05-10T11:53:45;14.63;;;6.88;;
65189;SDS011;51777;53.570;9.984;2023-05-10T11:56:11;11.98;;;7.03;;
65189;SDS011;51777;53.570;9.984;2023-05-10T11:58:37;10.85;;;6.90;;
65189;SDS011;51777;53.570;9.984;2023-05-10T12:01:05;11.93;;;6.35;;
65189;SDS011;51777;53.570;9.984;2023-05-10T12:03:37;10.75;;;6.47;;
65189;SDS011;51777;53.570;9.984;2023-05-10T12:06:03;7.32;;;6.43;;
65189;SDS011;51777;53.570;9.984;2023-05-10T12:08:29;12.43;;;6.70;;
65189;SDS011;51777;53.570;9.984;2023-05-10T12:11:06;10.07;;;6.63;;
65189;SDS011;51777;53.570;9.984;2023-05-10T12:13:37;9.63;;;6.25;;
65189;SDS011;51777;53.570;9.984;2023-05-10T12:16:19;10.18;;;6.70;;
65189;SDS011;51777;53.570;9.984;2023-05-10T12:18:51;9.15;;;6.50;;
65189;SDS011;51777;53.570;9.984;2023-05-10T12:21:18;7.43;;;6.47;;
65189;SDS011;51777;53.570;9.984;2023-05-10T12:23:50;6.90;;;6.18;;
65189;SDS011;51777;53.570;9.984;2023-05-10T12:26:25;9.95;;;6.50;;
65189;SDS011;51777;53.570;9.984;2023-05-10T12:28:52;8.57;;;6.25;;
65189;SDS011;51777;53.570;9.984;2023-05-10T12:31:18;13.20;;;5.72;;
65189;SDS011;51777;53.570;9.984;2023-05-10T12:33:44;8.00;;;5.97;;
65189;SDS011;51777;53.570;9.984;2023-05-10T12:36:12;14.10;;;5.75;;
65189;SDS011;51777;53.570;9.984;2023-05-10T12:38:40;16.58;;;5.70;;
65189;SDS011;51777;53.570;9.984;2023-05-10T12:41:14;11.13;;;6.07;;
65189;SDS011;51777;53.570;9.984;2023-05-10T12:43:41;8.07;;;5.88;;
65189;SDS011;51777;53.570;9.984;2023-05-10T12:48:40;143.55;;;13.32;;
65189;SDS011;51777;53.570;9.984;2023-05-10T12:51:07;43.10;;;8.57;;
65189;SDS011;51777;53.570;9.984;2023-05-10T12:53:38;20.30;;;5.38;;
65189;SDS011;51777;53.570;9.984;2023-05-10T12:56:05;41.67;;;7.05;;
65189;SDS011;51777;53.570;9.984;2023-05-10T12:58:32;12.60;;;5.40;;
65189;SDS011;51777;53.570;9.984;2023-05-10T13:00:58;8.50;;;4.82;;
65189;SDS011;51777;53.570;9.984;2023-05-10T13:03:24;7.03;;;5.63;;
65189;SDS011;51777;53.570;9.984;2023-05-10T13:05:50;11.15;;;4.70;;
65189;SDS011;51777;53.570;9.984;2023-05-10T13:08:15;16.73;;;5.72;;
65189;SDS011;51777;53.570;9.984;2023-05-10T13:10:41;30.10;;;5.43;;
65189;SDS011;51777;53.570;9.984;2023-05-10T13:13:06;67.63;;;7.32;;
65189;SDS011;51777;53.570;9.984;2023-05-10T13:15:33;128.93;;;11.57;;
65189;SDS011;51777;53.570;9.984;2023-05-10T13:17:59;50.10;;;6.93;;
65189;SDS011;51777;53.570;9.984;2023-05-10T13:20:25;189.13;;;16.60;;
65189;SDS011;51777;53.570;9.984;2023-05-10T13:22:50;152.20;;;11.75;;
65189;SDS011;51777;53.570;9.984;2023-05-10T13:25:16;36.83;;;6.30;;
65189;SDS011;51777;53.570;9.984;2023-05-10T13:27:42;16.58;;;4.80;;
65189;SDS011;51777;53.570;9.984;2023-05-10T13:30:08;40.47;;;6.55;;
65189;SDS011;51777;53.570;9.984;2023-05-10T13:32:35;69.93;;;7.22;;
65189;SDS011;51777;53.570;9.984;2023-05-10T13:35:00;43.20;;;6.35;;
65189;SDS011;51777;53.570;9.984;2023-05-10T13:37:28;40.47;;;6.10;;
65189;SDS011;51777;53.570;9.984;2023-05-10T13:39:54;16.92;;;5.43;;
65189;SDS011;51777;53.570;9.984;2023-05-10T13:42:20;36.95;;;5.65;;
65189;SDS011;51777;53.570;9.984;2023-05-10T13:44:47;12.52;;;4.30;;
65189;SDS011;51777;53.570;9.984;2023-05-10T13:47:12;31.42;;;5.05;;
65189;SDS011;51777;53.570;9.984;2023-05-10T13:49:38;6.53;;;4.75;;
65189;SDS011;51777;53.570;9.984;2023-05-10T13:52:03;7.30;;;4.40;;
65189;SDS011;51777;53.570;9.984;2023-05-10T13:54:32;7.32;;;4.80;;
65189;SDS011;51777;53.570;9.984;2023-05-10T13:57:00;25.23;;;5.75;;
65189;SDS011;51777;53.570;9.984;2023-05-10T13:59:26;23.98;;;6.32;;
65189;SDS011;51777;53.570;9.984;2023-05-10T14:01:51;7.00;;;4.38;;
65189;SDS011;51777;53.570;9.984;2023-05-10T14:04:17;4.28;;;3.83;;
65189;SDS011;51777;53.570;9.984;2023-05-10T14:06:42;5.88;;;4.68;;
65189;SDS011;51777;53.570;9.984;2023-05-10T14:09:08;6.60;;;5.40;;
65189;SDS011;51777;53.570;9.984;2023-05-10T14:11:33;14.93;;;5.20;;
65189;SDS011;51777;53.570;9.984;2023-05-10T14:13:59;15.20;;;5.05;;
65189;SDS011;51777;53.570;9.984;2023-05-10T14:16:24;22.13;;;5.00;;
65189;SDS011;51777;53.570;9.984;2023-05-10T14:18:50;18.60;;;5.30;;
65189;SDS011;51777;53.570;9.984;2023-05-10T14:21:17;11.02;;;5.00;;
65189;SDS011;51777;53.570;9.984;2023-05-10T14:23:43;13.82;;;4.68;;
65189;SDS011;51777;53.570;9.984;2023-05-10T14:26:08;21.27;;;4.82;;
65189;SDS011;51777;53.570;9.984;2023-05-10T14:28:34;41.55;;;6.50;;
65189;SDS011;51777;53.570;9.984;2023-05-10T14:31:00;18.85;;;4.93;;
65189;SDS011;51777;53.570;9.984;2023-05-10T14:33:25;33.03;;;5.55;;
65189;SDS011;51777;53.570;9.984;2023-05-10T14:35:51;19.92;;;5.85;;
65189;SDS011;51777;53.570;9.984;2023-05-10T14:38:16;29.13;;;6.20;;
65189;SDS011;51777;53.570;9.984;2023-05-10T14:40:42;23.63;;;5.25;;
65189;SDS011;51777;53.570;9.984;2023-05-10T14:43:08;12.63;;;5.20;;
65189;SDS011;51777;53.570;9.984;2023-05-10T14:45:34;23.60;;;6.10;;
65189;SDS011;51777;53.570;9.984;2023-05-10T14:47:59;45.35;;;6.85;;
65189;SDS011;51777;53.570;9.984;2023-05-10T14:50:25;63.42;;;6.97;;
65189;SDS011;51777;53.570;9.984;2023-05-10T14:52:50;26.40;;;6.22;;
65189;SDS011;51777;53.570;9.984;2023-05-10T14:55:16;64.20;;;7.15;;
65189;SDS011;51777;53.570;9.984;2023-05-10T14:57:42;99.97;;;8.38;;
65189;SDS011;51777;53.570;9.984;2023-05-10T15:00:09;98.97;;;9.77;;
65189;SDS011;51777;53.570;9.984;2023-05-10T15:02:35;78.03;;;8.40;;
65189;SDS011;51777;53.570;9.984;2023-05-10T15:05:00;64.47;;;7.82;;
65189;SDS011;51777;53.570;9.984;2023-05-10T15:07:26;30.33;;;5.55;;
65189;SDS011;51777;53.570;9.984;2023-05-10T15:09:51;32.58;;;6.72;;
65189;SDS011;51777;53.570;9.984;2023-05-10T15:12:17;31.52;;;5.70;;
65189;SDS011;51777;53.570;9.984;2023-05-10T15:14:43;23.55;;;5.47;;
65189;SDS011;51777;53.570;9.984;2023-05-10T15:17:08;17.05;;;5.00;;
65189;SDS011;51777;53.570;9.984;2023-05-10T15:19:35;25.27;;;5.20;;
65189;SDS011;51777;53.570;9.984;2023-05-10T15:22:00;18.85;;;5.03;;
65189;SDS011;51777;53.570;9.984;2023-05-10T15:24:26;11.38;;;5.10;;
65189;SDS011;51777;53.570;9.984;2023-05-10T15:26:52;12.82;;;4.85;;